createdAt,value
2022-08-16T00:03:27.269Z,7.57
2022-08-16T00:06:31.117Z,7.75
2022-08-16T00:09:35.827Z,7.78
2022-08-16T00:12:41.816Z,8.05
2022-08-16T00:15:51.588Z,8.05
2022-08-16T00:18:57.296Z,7.55
2022-08-16T00:22:03.190Z,7.20
2022-08-16T00:25:17.563Z,7.07
2022-08-16T00:28:20.436Z,7.68
2022-08-16T00:31:24.462Z,7.75
2022-08-16T00:34:45.193Z,6.93
2022-08-16T00:37:57.641Z,7.50
2022-08-16T00:41:02.378Z,7.25
2022-08-16T00:44:11.217Z,7.00
2022-08-16T00:47:18.146Z,7.05
2022-08-16T00:50:35.855Z,7.28
2022-08-16T00:53:39.432Z,7.00
2022-08-16T00:56:58.158Z,7.68
2022-08-16T01:00:06.076Z,7.53
2022-08-16T01:03:12.868Z,7.37
2022-08-16T01:06:39.884Z,7.55
2022-08-16T01:09:43.146Z,8.13
2022-08-16T01:16:05.733Z,7.85
2022-08-16T01:19:23.517Z,7.55
2022-08-16T01:22:57.382Z,7.75
2022-08-16T01:26:34.408Z,8.70
2022-08-16T01:29:55.955Z,8.20
2022-08-16T01:33:01.717Z,8.60
2022-08-16T01:36:11.937Z,8.70
2022-08-16T01:39:17.454Z,8.52
2022-08-16T01:42:21.110Z,8.13
2022-08-16T01:45:40.662Z,7.85
2022-08-16T01:48:46.328Z,8.40
2022-08-16T01:51:54.215Z,8.18
2022-08-16T01:54:58.469Z,7.82
2022-08-16T01:58:03.077Z,7.37
2022-08-16T02:01:07.332Z,7.97
2022-08-16T02:04:11.960Z,7.85
2022-08-16T02:07:34.772Z,7.28
2022-08-16T02:10:38.616Z,7.22
2022-08-16T02:13:44.251Z,7.87
2022-08-16T02:16:47.737Z,7.40
2022-08-16T02:19:59.330Z,7.50
2022-08-16T02:26:09.835Z,7.07
2022-08-16T02:29:20.805Z,7.03
2022-08-16T02:32:49.978Z,7.55
2022-08-16T02:35:54.308Z,7.10
2022-08-16T02:39:02.201Z,7.55
2022-08-16T02:42:06.461Z,7.95
2022-08-16T02:45:09.825Z,7.37
2022-08-16T02:48:29.580Z,7.40
2022-08-16T02:51:35.657Z,7.72
2022-08-16T02:54:39.633Z,7.40
2022-08-16T02:57:54.355Z,7.22
2022-08-16T03:00:57.931Z,7.45
2022-08-16T03:04:30.104Z,7.50
2022-08-16T03:07:27.903Z,7.20
2022-08-16T03:10:33.560Z,9.63
2022-08-16T03:13:40.286Z,10.18
2022-08-16T03:16:59.587Z,8.77
2022-08-16T03:20:05.973Z,8.25
2022-08-16T03:23:11.448Z,8.88
2022-08-16T03:26:18.135Z,8.73
2022-08-16T03:29:21.675Z,8.45
2022-08-16T03:32:26.837Z,7.70
2022-08-16T03:35:33.516Z,7.72
2022-08-16T03:38:38.297Z,7.75
2022-08-16T03:41:50.118Z,8.38
2022-08-16T03:48:09.990Z,15.25
2022-08-16T03:51:25.356Z,8.68
2022-08-16T03:54:29.392Z,7.32
2022-08-16T03:57:35.562Z,6.62
2022-08-16T04:00:40.960Z,18.55
2022-08-16T04:03:45.676Z,15.70
2022-08-16T04:06:49.472Z,8.55
2022-08-16T04:09:55.344Z,8.32
2022-08-16T04:13:04.061Z,7.60
2022-08-16T04:16:09.491Z,7.82
2022-08-16T04:19:31.476Z,7.78
2022-08-16T04:22:36.927Z,7.95
2022-08-16T04:25:42.660Z,7.15
2022-08-16T04:28:53.234Z,7.40
2022-08-16T04:31:59.824Z,6.90
2022-08-16T04:35:07.777Z,7.10
2022-08-16T04:38:21.172Z,7.62
2022-08-16T04:41:32.688Z,7.75
2022-08-16T04:44:53.613Z,7.72
2022-08-16T04:48:00.166Z,7.12
2022-08-16T04:51:11.657Z,7.22
2022-08-16T04:54:19.424Z,7.60
2022-08-16T04:57:22.886Z,7.53
2022-08-16T05:00:34.378Z,7.40
2022-08-16T05:03:41.820Z,7.87
2022-08-16T05:06:46.103Z,8.07
2022-08-16T05:09:50.004Z,8.55
2022-08-16T05:12:53.615Z,9.50
2022-08-16T05:15:56.800Z,8.43
2022-08-16T05:19:06.231Z,9.05
2022-08-16T05:22:18.049Z,8.98
2022-08-16T05:25:21.907Z,9.50
2022-08-16T05:28:30.907Z,8.88
2022-08-16T05:31:48.451Z,8.77
2022-08-16T05:34:56.555Z,8.65
2022-08-16T05:37:59.667Z,8.00
2022-08-16T05:41:03.827Z,7.62
2022-08-16T05:44:23.102Z,7.87
2022-08-16T05:47:27.989Z,9.10
2022-08-16T05:50:34.652Z,8.98
2022-08-16T05:53:38.898Z,8.30
2022-08-16T05:56:50.032Z,8.20
2022-08-16T05:59:59.539Z,8.98
2022-08-16T06:03:03.776Z,8.32
2022-08-16T06:06:08.521Z,7.90
2022-08-16T06:09:13.961Z,8.35
2022-08-16T06:12:27.273Z,8.52
2022-08-16T06:21:39.909Z,7.20
2022-08-16T06:24:54.700Z,8.00
2022-08-16T06:27:58.395Z,8.65
2022-08-16T06:31:06.963Z,8.38
2022-08-16T06:34:31.680Z,8.65
2022-08-16T06:37:40.515Z,8.98
2022-08-16T06:40:49.222Z,8.32
2022-08-16T06:43:52.544Z,8.77
2022-08-16T06:46:58.026Z,8.15
2022-08-16T06:50:06.655Z,8.70
2022-08-16T06:53:14.901Z,7.62
2022-08-16T06:56:23.591Z,8.02
2022-08-16T06:59:28.881Z,7.47
2022-08-16T07:02:33.996Z,7.45
2022-08-16T07:05:41.988Z,8.20
2022-08-16T07:08:46.630Z,7.50
2022-08-16T07:11:51.788Z,7.93
2022-08-16T07:15:00.006Z,8.18
2022-08-16T07:18:05.517Z,7.40
2022-08-16T07:21:10.122Z,7.22
2022-08-16T07:24:29.469Z,7.47
2022-08-16T07:27:37.516Z,6.95
2022-08-16T07:30:46.585Z,7.20
2022-08-16T07:33:54.823Z,7.28
2022-08-16T07:37:04.982Z,7.22
2022-08-16T07:40:13.355Z,6.93
2022-08-16T07:43:16.387Z,7.28
2022-08-16T07:46:39.417Z,7.07
2022-08-16T07:49:53.184Z,6.68
2022-08-16T07:53:02.154Z,6.80
2022-08-16T07:56:06.256Z,6.55
2022-08-16T07:59:10.995Z,6.50
2022-08-16T08:02:14.321Z,6.82
2022-08-16T08:05:35.645Z,6.68
2022-08-16T08:08:50.284Z,5.97
2022-08-16T08:11:59.999Z,5.75
2022-08-16T08:15:10.099Z,6.57
2022-08-16T08:18:29.389Z,6.10
2022-08-16T08:22:01.393Z,6.60
2022-08-16T08:25:07.215Z,6.05
2022-08-16T08:28:11.249Z,6.47
2022-08-16T08:31:17.294Z,7.00
2022-08-16T08:34:23.090Z,6.93
2022-08-16T08:37:27.080Z,6.85
2022-08-16T08:40:50.565Z,7.03
2022-08-16T08:43:56.433Z,5.93
2022-08-16T08:47:02.016Z,6.35
2022-08-16T08:50:07.436Z,6.10
2022-08-16T08:53:12.971Z,6.60
2022-08-16T08:56:23.819Z,6.12
2022-08-16T08:59:29.387Z,6.20
2022-08-16T09:02:32.726Z,6.18
2022-08-16T09:05:37.373Z,6.82
2022-08-16T09:08:47.419Z,5.80
2022-08-16T09:11:53.774Z,5.87
2022-08-16T09:15:13.653Z,6.03
2022-08-16T09:18:26.700Z,5.95
2022-08-16T09:21:31.367Z,5.75
2022-08-16T09:24:52.808Z,5.18
2022-08-16T09:28:02.176Z,4.47
2022-08-16T09:31:06.252Z,4.80
2022-08-16T09:34:10.531Z,4.53
2022-08-16T09:37:17.923Z,4.65
2022-08-16T09:40:32.599Z,5.22
2022-08-16T09:47:10.376Z,5.15
2022-08-16T09:50:14.105Z,4.80
2022-08-16T09:53:26.844Z,5.22
2022-08-16T09:56:33.176Z,4.97
2022-08-16T09:59:38.464Z,4.82
2022-08-16T10:02:44.419Z,4.37
2022-08-16T10:05:51.488Z,4.93
2022-08-16T10:09:04.324Z,4.95
2022-08-16T10:12:28.571Z,4.70
2022-08-16T10:15:31.602Z,4.30
2022-08-16T10:18:54.152Z,4.18
2022-08-16T10:21:58.256Z,4.60
2022-08-16T10:25:01.323Z,4.50
2022-08-16T10:28:27.543Z,4.47
2022-08-16T10:31:45.612Z,4.55
2022-08-16T10:34:51.388Z,4.70
2022-08-16T10:37:55.412Z,4.82
2022-08-16T10:40:57.856Z,5.03
2022-08-16T10:44:04.029Z,6.05
2022-08-16T10:47:11.984Z,4.37
2022-08-16T10:50:19.653Z,4.78
2022-08-16T10:53:22.741Z,5.18
2022-08-16T10:56:49.501Z,4.80
2022-08-16T10:59:57.628Z,4.28
2022-08-16T11:03:05.445Z,5.55
2022-08-16T11:06:11.961Z,4.78
2022-08-16T11:09:24.716Z,4.65
2022-08-16T11:12:28.653Z,4.70
2022-08-16T11:15:34.241Z,5.05
2022-08-16T11:19:03.501Z,4.60
2022-08-16T11:22:39.155Z,4.20
2022-08-16T11:32:13.881Z,4.82
2022-08-16T11:38:57.082Z,5.47
2022-08-16T11:42:02.477Z,5.37
2022-08-16T11:45:05.578Z,4.93
2022-08-16T11:48:09.652Z,4.68
2022-08-16T11:51:12.915Z,4.40
2022-08-16T11:54:21.781Z,5.18
2022-08-16T11:57:28.507Z,5.10
2022-08-16T12:00:33.966Z,4.70
2022-08-16T12:03:53.877Z,4.87
2022-08-16T12:06:57.374Z,4.80
2022-08-16T12:10:01.265Z,4.37
2022-08-16T12:13:10.374Z,4.00
2022-08-16T12:16:17.647Z,3.67
2022-08-16T12:19:35.543Z,3.67
2022-08-16T12:22:39.545Z,3.50
2022-08-16T12:25:44.742Z,3.80
2022-08-16T12:28:54.830Z,4.20
2022-08-16T12:32:12.145Z,3.40
2022-08-16T12:35:22.756Z,3.90
2022-08-16T12:38:41.800Z,3.95
2022-08-16T12:41:48.804Z,4.25
2022-08-16T12:44:51.547Z,3.90
2022-08-16T12:48:33.992Z,4.53
2022-08-16T12:51:58.759Z,4.50
2022-08-16T12:55:04.129Z,4.12
2022-08-16T12:58:13.852Z,5.00
2022-08-16T13:01:33.274Z,4.95
2022-08-16T13:04:37.744Z,5.00
2022-08-16T13:07:45.216Z,4.85
2022-08-16T13:10:55.183Z,5.30
2022-08-16T13:13:58.377Z,5.70
2022-08-16T13:17:03.980Z,5.60
2022-08-16T13:20:13.790Z,6.00
2022-08-16T13:23:17.428Z,5.90
2022-08-16T13:26:20.274Z,5.22
2022-08-16T13:29:23.054Z,5.20
2022-08-16T13:32:39.826Z,5.00
2022-08-16T13:35:56.022Z,5.25
2022-08-16T13:39:01.569Z,5.78
2022-08-16T13:42:09.984Z,5.03
2022-08-16T13:45:15.959Z,5.85
2022-08-16T13:48:21.847Z,5.85
2022-08-16T13:51:30.643Z,5.20
2022-08-16T13:54:33.881Z,5.87
2022-08-16T13:58:35.748Z,5.72
2022-08-16T14:01:00.857Z,5.03
2022-08-16T14:04:05.436Z,5.25
2022-08-16T14:07:11.088Z,5.15
2022-08-16T14:10:15.269Z,5.20
2022-08-16T14:13:20.778Z,5.55
2022-08-16T14:16:34.122Z,5.60
2022-08-16T14:19:37.504Z,5.57
2022-08-16T14:22:52.464Z,5.57
2022-08-16T14:25:57.886Z,5.07
2022-08-16T14:29:03.591Z,5.25
2022-08-16T14:32:08.027Z,5.18
2022-08-16T14:35:16.746Z,5.35
2022-08-16T14:38:23.778Z,5.12
2022-08-16T14:41:28.600Z,5.30
2022-08-16T14:44:32.006Z,5.85
2022-08-16T14:47:38.537Z,5.57
2022-08-16T14:50:41.822Z,5.20
2022-08-16T14:53:45.126Z,5.22
2022-08-16T14:56:55.305Z,5.90
2022-08-16T15:00:04.754Z,7.80
2022-08-16T15:03:13.147Z,5.82
2022-08-16T15:06:19.302Z,6.00
2022-08-16T15:09:22.318Z,5.07
2022-08-16T15:12:32.740Z,5.68
2022-08-16T15:15:38.529Z,5.72
2022-08-16T15:18:42.631Z,5.90
2022-08-16T15:21:53.779Z,5.82
2022-08-16T15:25:02.220Z,5.60
2022-08-16T15:28:09.879Z,5.30
2022-08-16T15:31:27.623Z,5.00
2022-08-16T15:34:31.168Z,4.43
2022-08-16T15:37:42.189Z,4.82
2022-08-16T15:40:54.953Z,5.22
2022-08-16T15:44:05.380Z,5.60
2022-08-16T15:47:15.232Z,5.47
2022-08-16T15:50:18.605Z,5.22
2022-08-16T15:53:30.752Z,5.18
2022-08-16T15:56:35.464Z,5.12
2022-08-16T15:59:48.185Z,4.80
2022-08-16T16:03:09.046Z,4.78
2022-08-16T16:06:12.821Z,4.53
2022-08-16T16:09:19.449Z,4.47
2022-08-16T16:12:53.651Z,4.97
2022-08-16T16:15:59.048Z,4.62
2022-08-16T16:19:02.026Z,4.60
2022-08-16T16:22:05.615Z,5.00
2022-08-16T16:25:09.018Z,5.07
2022-08-16T16:29:05.181Z,5.62
2022-08-16T16:31:42.106Z,4.53
2022-08-16T16:34:46.502Z,4.95
2022-08-16T16:37:50.050Z,4.85
2022-08-16T16:40:54.945Z,5.18
2022-08-16T16:43:59.505Z,4.60
2022-08-16T16:47:02.045Z,5.00
2022-08-16T16:50:05.780Z,4.90
2022-08-16T16:53:17.283Z,4.97
2022-08-16T16:56:30.325Z,4.70
2022-08-16T16:59:35.759Z,4.85
2022-08-16T17:02:49.222Z,5.03
2022-08-16T17:06:02.685Z,5.18
2022-08-16T17:09:12.565Z,5.32
2022-08-16T17:12:25.445Z,5.40
2022-08-16T17:15:39.609Z,5.15
2022-08-16T17:19:15.670Z,5.47
2022-08-16T17:22:06.195Z,5.12
2022-08-16T17:25:17.092Z,6.18
2022-08-16T17:28:58.774Z,6.05
2022-08-16T17:31:43.414Z,5.55
2022-08-16T17:34:50.778Z,4.85
2022-08-16T17:37:54.059Z,5.35
2022-08-16T17:40:59.364Z,5.68
2022-08-16T17:44:03.786Z,5.12
2022-08-16T17:47:06.882Z,5.90
2022-08-16T17:50:10.014Z,4.72
2022-08-16T17:53:16.061Z,5.70
2022-08-16T17:56:18.617Z,5.93
2022-08-16T17:59:23.344Z,5.70
2022-08-16T18:02:53.023Z,6.00
2022-08-16T18:05:49.041Z,5.80
2022-08-16T18:09:00.232Z,5.55
2022-08-16T18:12:44.926Z,6.18
2022-08-16T18:15:52.895Z,5.82
2022-08-16T18:18:56.515Z,5.82
2022-08-16T18:22:17.748Z,5.93
2022-08-16T18:25:21.087Z,4.87
2022-08-16T18:28:24.924Z,5.35
2022-08-16T18:31:28.137Z,4.97
2022-08-16T18:34:30.932Z,6.50
2022-08-16T18:37:34.476Z,9.50
2022-08-16T18:40:38.695Z,7.75
2022-08-16T18:43:54.377Z,6.32
2022-08-16T18:47:04.712Z,5.30
2022-08-16T18:50:08.241Z,4.47
2022-08-16T18:53:13.421Z,4.62
2022-08-16T18:56:16.388Z,4.85
2022-08-16T18:59:18.878Z,5.53
2022-08-16T19:02:42.961Z,8.38
2022-08-16T19:06:04.316Z,6.70
2022-08-16T19:09:07.220Z,6.15
2022-08-16T19:15:20.317Z,6.03
2022-08-16T19:18:24.846Z,5.90
2022-08-16T19:21:27.909Z,6.30
2022-08-16T19:24:30.446Z,6.55
2022-08-16T19:27:33.878Z,6.45
2022-08-16T19:30:39.369Z,6.37
2022-08-16T19:33:53.184Z,7.28
2022-08-16T19:36:57.369Z,7.22
2022-08-16T19:40:01.272Z,7.12
2022-08-16T19:43:03.836Z,6.90
2022-08-16T19:46:09.794Z,7.43
2022-08-16T19:52:24.564Z,7.35
2022-08-16T19:55:27.104Z,6.80
2022-08-16T19:58:30.835Z,7.62
2022-08-16T20:01:37.392Z,7.68
2022-08-16T20:04:43.078Z,7.78
2022-08-16T20:07:46.049Z,7.90
2022-08-16T20:10:50.514Z,7.03
2022-08-16T20:13:52.996Z,7.37
2022-08-16T20:16:58.004Z,7.93
2022-08-16T20:20:00.639Z,8.30
2022-08-16T20:23:03.958Z,7.60
2022-08-16T20:26:06.683Z,7.72
2022-08-16T20:29:10.227Z,7.65
2022-08-16T20:32:25.601Z,7.78
2022-08-16T20:35:29.053Z,8.35
2022-08-16T20:38:31.646Z,9.32
2022-08-16T20:41:34.664Z,8.27
2022-08-16T20:47:39.870Z,7.93
2022-08-16T20:50:45.056Z,8.20
2022-08-16T20:53:48.013Z,8.02
2022-08-16T20:56:50.762Z,8.50
2022-08-16T20:59:53.671Z,8.10
2022-08-16T21:02:56.129Z,8.75
2022-08-16T21:06:01.989Z,9.73
2022-08-16T21:09:05.146Z,10.75
2022-08-16T21:12:11.458Z,9.10
2022-08-16T21:15:17.194Z,7.55
2022-08-16T21:18:20.154Z,7.47
2022-08-16T21:21:22.798Z,6.35
2022-08-16T21:24:34.683Z,6.35
2022-08-16T21:27:39.494Z,7.50
2022-08-16T21:31:00.077Z,6.75
2022-08-16T21:34:02.746Z,6.65
2022-08-16T21:37:06.418Z,6.28
2022-08-16T21:40:10.434Z,6.65
2022-08-16T21:43:17.574Z,7.80
2022-08-16T21:46:20.009Z,8.35
2022-08-16T21:49:22.916Z,8.63
2022-08-16T21:52:26.676Z,10.13
2022-08-16T21:55:29.890Z,8.18
2022-08-16T22:01:35.499Z,7.18
2022-08-16T22:04:41.297Z,7.30
2022-08-16T22:07:43.937Z,6.85
2022-08-16T22:11:06.994Z,7.32
2022-08-16T22:14:10.100Z,7.25
2022-08-16T22:17:12.995Z,6.78
2022-08-16T22:20:15.756Z,7.43
2022-08-16T22:23:22.424Z,7.07
2022-08-16T22:26:31.792Z,7.30
2022-08-16T22:29:35.231Z,7.82
2022-08-16T22:32:44.022Z,7.20
2022-08-16T22:35:52.851Z,6.95
2022-08-16T22:38:58.214Z,7.55
2022-08-16T22:42:08.587Z,6.80
2022-08-16T22:45:12.176Z,6.72
2022-08-16T22:48:17.194Z,6.43
2022-08-16T22:51:22.610Z,7.07
2022-08-16T22:54:47.858Z,7.18
2022-08-16T22:57:48.752Z,6.68
2022-08-16T23:00:51.579Z,6.97
2022-08-16T23:03:56.377Z,6.80
2022-08-16T23:06:59.304Z,6.82
2022-08-16T23:10:01.916Z,6.35
2022-08-16T23:13:06.618Z,7.12
2022-08-16T23:16:11.310Z,7.28
2022-08-16T23:19:16.617Z,7.10
2022-08-16T23:22:19.315Z,6.95
2022-08-16T23:25:30.850Z,7.35
2022-08-16T23:28:33.574Z,6.70
2022-08-16T23:31:36.889Z,6.95
2022-08-16T23:34:41.650Z,7.57
2022-08-16T23:37:44.812Z,6.82
2022-08-16T23:40:49.142Z,6.82
2022-08-16T23:43:51.864Z,7.22
2022-08-16T23:46:54.866Z,7.80
2022-08-16T23:53:06.680Z,6.82
2022-08-16T23:56:15.772Z,7.45
2022-08-16T23:59:18.441Z,7.90
